Saltillo, Arkansas
Current Conditions -  °F | °C
As of 12:23 PM on Thursday 18 Dec 2014 (Local Time) from KLRF Reporting Station
Overcast Overcast  
Wind Chill: 41°   Ceiling: 600
Heat Index: 41°   Visibility: 10mi
Dew Point: 39°   Wind: 2mph
Humidity: 93%   Direction: NA
Pressure: 30.2"   Gusts: NA
Location:  35.0822°N, 92.366°W
Report Text: KLRF 181823Z AUTO VRB02KT 10SM OVC006 05/04 A3020 RMK AO2
Loading
Personal Weather Stations






























Interactive Weather Map New forecast layout! Learn more

10-Day Weather Forecast

Advertisements
Track Severe Weather on mobile